createdAt,value
2019-02-14T00:01:06.463Z,101054.08
2019-02-14T00:03:36.704Z,101056.67
2019-02-14T00:06:06.493Z,101057.17
2019-02-14T00:08:37.638Z,101060.66
2019-02-14T00:11:07.907Z,101056.38
2019-02-14T00:13:37.927Z,101060.23
2019-02-14T00:16:08.259Z,101064.94
2019-02-14T00:18:42.356Z,101057.48
2019-02-14T00:21:14.294Z,101058.78
2019-02-14T00:23:47.131Z,101058.84
2019-02-14T00:26:18.088Z,101056.25
2019-02-14T00:28:49.245Z,101053.14
2019-02-14T00:31:24.217Z,101059.72
2019-02-14T00:33:53.839Z,101053.14
2019-02-14T00:36:23.841Z,101051.83
2019-02-14T00:38:54.825Z,101052.33
2019-02-14T00:41:25.033Z,101064.13
2019-02-14T00:43:54.554Z,101064.52
2019-02-14T00:46:24.017Z,101059.30
2019-02-14T00:48:55.824Z,101055.45
2019-02-14T00:51:25.740Z,101052.40
2019-02-14T00:53:55.196Z,101059.78
2019-02-14T00:56:25.477Z,101057.13
2019-02-14T00:58:54.960Z,101058.36
2019-02-14T01:01:24.588Z,101053.00
2019-02-14T01:03:55.957Z,101051.56
2019-02-14T01:06:26.621Z,101054.64
2019-02-14T01:08:57.831Z,101050.34
2019-02-14T01:11:29.353Z,101053.80
2019-02-14T01:13:58.905Z,101056.84
2019-02-14T01:16:29.637Z,101055.55
2019-02-14T01:19:03.439Z,101049.97
2019-02-14T01:21:32.960Z,101045.92
2019-02-14T01:24:02.224Z,101044.53
2019-02-14T01:26:32.499Z,101043.72
2019-02-14T01:29:02.475Z,101045.89
2019-02-14T01:31:32.760Z,101054.17
2019-02-14T01:34:02.241Z,101058.14
2019-02-14T01:36:33.867Z,101062.05
2019-02-14T01:39:03.214Z,101062.98
2019-02-14T01:41:32.743Z,101064.31
2019-02-14T01:44:02.239Z,101070.47
2019-02-14T01:46:32.468Z,101062.98
2019-02-14T01:49:05.770Z,101061.67
2019-02-14T01:51:39.707Z,101068.64
2019-02-14T01:54:11.942Z,101070.75
2019-02-14T01:56:43.203Z,101077.31
2019-02-14T01:59:13.429Z,101072.06
2019-02-14T02:01:43.941Z,101068.22
2019-02-14T02:04:13.150Z,101065.66
2019-02-14T02:06:42.891Z,101062.19
2019-02-14T02:09:12.620Z,101068.27
2019-02-14T02:11:42.826Z,101063.00
2019-02-14T02:14:14.513Z,101057.33
2019-02-14T02:16:43.782Z,101057.33
2019-02-14T02:19:13.526Z,101059.03
2019-02-14T02:21:42.720Z,101050.34
2019-02-14T02:24:12.251Z,101053.28
2019-02-14T02:26:44.219Z,101044.94
2019-02-14T02:29:18.052Z,101044.17
2019-02-14T02:31:47.598Z,101050.17
2019-02-14T02:34:17.164Z,101048.88
2019-02-14T02:36:47.386Z,101055.81
2019-02-14T02:39:17.291Z,101051.11
2019-02-14T02:41:48.679Z,101064.91
2019-02-14T02:44:20.968Z,101059.70
2019-02-14T02:46:53.712Z,101067.11
2019-02-14T02:49:23.474Z,101067.08
2019-02-14T02:51:54.408Z,101070.98
2019-02-14T02:54:23.618Z,101074.39
2019-02-14T02:56:53.176Z,101072.14
2019-02-14T02:59:25.744Z,101066.50
2019-02-14T03:01:55.909Z,101071.27
2019-02-14T03:04:25.126Z,101070.39
2019-02-14T03:06:54.593Z,101066.03
2019-02-14T03:09:24.844Z,101053.87
2019-02-14T03:11:56.090Z,101053.80
2019-02-14T03:14:26.085Z,101055.09
2019-02-14T03:16:55.701Z,101057.36
2019-02-14T03:19:25.653Z,101059.98
2019-02-14T03:21:55.414Z,101056.08
2019-02-14T03:24:26.469Z,101059.08
2019-02-14T03:26:58.890Z,101061.17
2019-02-14T03:29:29.885Z,101061.09
2019-02-14T03:32:04.669Z,101058.06
2019-02-14T03:34:36.159Z,101067.17
2019-02-14T03:37:07.121Z,101074.11
2019-02-14T03:39:37.080Z,101076.34
2019-02-14T03:42:06.321Z,101070.31
2019-02-14T03:44:36.129Z,101080.73
2019-02-14T03:47:06.177Z,101072.39
2019-02-14T03:49:36.172Z,101075.93
2019-02-14T03:52:12.450Z,101071.09
2019-02-14T03:54:46.775Z,101066.73
2019-02-14T03:57:16.019Z,101081.03
2019-02-14T03:59:49.671Z,101077.13
2019-02-14T04:02:22.014Z,101072.69
2019-02-14T04:04:53.505Z,101078.78
2019-02-14T04:07:23.396Z,101079.61
2019-02-14T04:09:53.774Z,101070.94
2019-02-14T04:12:23.768Z,101075.30
2019-02-14T04:14:55.805Z,101067.91
2019-02-14T04:17:26.941Z,101072.32
2019-02-14T04:19:56.113Z,101074.33
2019-02-14T04:22:25.586Z,101080.40
2019-02-14T04:24:54.768Z,101077.89
2019-02-14T04:27:23.972Z,101084.91
2019-02-14T04:29:53.691Z,101087.02
2019-02-14T04:32:23.219Z,101089.69
2019-02-14T04:34:53.031Z,101089.28
2019-02-14T04:37:23.053Z,101090.61
2019-02-14T04:39:52.592Z,101087.56
2019-02-14T04:42:27.617Z,101083.97
2019-02-14T04:44:57.091Z,101089.25
2019-02-14T04:47:27.076Z,101087.87
2019-02-14T04:49:56.812Z,101081.22
2019-02-14T04:52:26.911Z,101086.91
2019-02-14T04:55:00.938Z,101086.48
2019-02-14T04:57:33.124Z,101079.19
2019-02-14T05:00:12.224Z,101080.92
2019-02-14T05:02:42.000Z,101082.30
2019-02-14T05:05:11.887Z,101080.48
2019-02-14T05:07:41.592Z,101078.30
2019-02-14T05:10:11.386Z,101073.03
2019-02-14T05:12:42.357Z,101082.13
2019-02-14T05:15:11.928Z,101089.94
2019-02-14T05:17:41.576Z,101083.02
2019-02-14T05:20:13.118Z,101072.54
2019-02-14T05:22:44.518Z,101080.70
2019-02-14T05:25:14.564Z,101081.58
2019-02-14T05:27:44.255Z,101080.69
2019-02-14T05:30:14.480Z,101089.89
2019-02-14T05:32:51.039Z,101086.37
2019-02-14T05:35:20.569Z,101082.46
2019-02-14T05:37:49.971Z,101082.00
2019-02-14T05:40:20.720Z,101074.62
2019-02-14T05:42:50.269Z,101088.47
2019-02-14T05:45:19.930Z,101089.26
2019-02-14T05:47:50.602Z,101094.45
2019-02-14T05:50:21.955Z,101096.48
2019-02-14T05:52:51.445Z,101098.22
2019-02-14T05:55:25.169Z,101097.41
2019-02-14T05:57:55.025Z,101097.46
2019-02-14T06:00:24.525Z,101100.88
2019-02-14T06:02:54.571Z,101101.37
2019-02-14T06:05:26.521Z,101103.92
2019-02-14T06:07:56.309Z,101105.59
2019-02-14T06:10:28.080Z,101104.72
2019-02-14T06:12:59.091Z,101113.30
2019-02-14T06:15:29.528Z,101115.06
2019-02-14T06:18:01.061Z,101114.70
2019-02-14T06:20:31.760Z,101116.42
2019-02-14T06:23:02.507Z,101120.34
2019-02-14T06:25:32.052Z,101121.23
2019-02-14T06:28:02.305Z,101122.06
2019-02-14T06:30:32.046Z,101126.26
2019-02-14T06:33:02.106Z,101126.16
2019-02-14T06:35:32.574Z,101132.68
2019-02-14T06:38:02.572Z,101134.87
2019-02-14T06:40:32.534Z,101138.41
2019-02-14T06:43:04.115Z,101141.80
2019-02-14T06:45:35.176Z,101147.00
2019-02-14T06:48:04.661Z,101153.48
2019-02-14T06:50:35.003Z,101158.76
2019-02-14T06:53:07.753Z,101159.20
2019-02-14T06:55:40.545Z,101161.89
2019-02-14T06:58:12.827Z,101170.65
2019-02-14T07:00:46.869Z,101172.42
2019-02-14T07:03:17.315Z,101182.94
2019-02-14T07:05:50.406Z,101188.68
2019-02-14T07:08:19.603Z,101192.20
2019-02-14T07:10:55.182Z,101194.45
2019-02-14T07:13:24.664Z,101195.30
2019-02-14T07:15:54.683Z,101201.41
2019-02-14T07:18:24.056Z,101192.34
2019-02-14T07:20:54.244Z,101195.89
2019-02-14T07:23:26.415Z,101192.44
2019-02-14T07:26:00.094Z,101195.31
2019-02-14T07:28:32.233Z,101199.36
2019-02-14T07:31:01.443Z,101208.62
2019-02-14T07:33:30.727Z,101213.97
2019-02-14T07:36:00.017Z,101214.30
2019-02-14T07:38:29.230Z,101226.39
2019-02-14T07:40:58.669Z,101232.16
2019-02-14T07:43:28.244Z,101229.63
2019-02-14T07:45:59.875Z,101233.72
2019-02-14T07:48:29.368Z,101231.21
2019-02-14T07:50:59.049Z,101227.67
2019-02-14T07:53:28.626Z,101231.69
2019-02-14T07:55:58.943Z,101233.17
2019-02-14T07:58:35.606Z,101220.52
2019-02-14T08:01:05.144Z,101222.00
2019-02-14T08:03:34.844Z,101226.87
2019-02-14T08:06:05.204Z,101233.96
2019-02-14T08:08:36.838Z,101243.23
2019-02-14T08:11:06.509Z,101244.97
2019-02-14T08:13:37.829Z,101246.63
2019-02-14T08:16:07.314Z,101240.52
2019-02-14T08:18:36.583Z,101235.79
2019-02-14T08:21:06.420Z,101236.74
2019-02-14T08:23:36.420Z,101231.70
2019-02-14T08:26:10.793Z,101237.91
2019-02-14T08:28:39.253Z,101241.39
2019-02-14T08:31:08.697Z,101234.52
2019-02-14T08:33:38.000Z,101237.56
2019-02-14T08:36:07.300Z,101241.10
2019-02-14T08:38:38.371Z,101241.92
2019-02-14T08:41:07.832Z,101247.27
2019-02-14T08:43:37.069Z,101233.83
2019-02-14T08:46:06.289Z,101233.89
2019-02-14T08:48:35.474Z,101226.15
2019-02-14T08:51:04.727Z,101220.97
2019-02-14T08:53:34.483Z,101222.78
2019-02-14T08:56:04.460Z,101224.97
2019-02-14T08:58:34.243Z,101222.38
2019-02-14T09:01:03.485Z,101221.56
2019-02-14T09:03:32.686Z,101222.05
2019-02-14T09:06:01.881Z,101219.39
2019-02-14T09:08:31.805Z,101215.52
2019-02-14T09:11:01.782Z,101212.91
2019-02-14T09:13:31.288Z,101213.77
2019-02-14T09:16:01.877Z,101205.92
2019-02-14T09:18:32.020Z,101210.28
2019-02-14T09:21:01.332Z,101208.98
2019-02-14T09:23:30.530Z,101205.46
2019-02-14T09:25:59.707Z,101198.89
2019-02-14T09:28:29.195Z,101189.70
2019-02-14T09:30:59.687Z,101188.75
2019-02-14T09:33:28.952Z,101190.83
2019-02-14T09:36:00.315Z,101192.02
2019-02-14T09:38:29.532Z,101182.73
2019-02-14T09:41:01.487Z,101185.19
2019-02-14T09:43:32.880Z,101181.56
2019-02-14T09:46:02.113Z,101179.61
2019-02-14T09:48:31.317Z,101173.40
2019-02-14T09:51:00.484Z,101167.03
2019-02-14T09:53:30.449Z,101163.11
2019-02-14T09:56:01.247Z,101160.05
2019-02-14T09:58:30.913Z,101160.84
2019-02-14T10:01:00.941Z,101166.77
2019-02-14T10:03:32.320Z,101164.98
2019-02-14T10:06:01.917Z,101157.73
2019-02-14T10:08:31.281Z,101153.81
2019-02-14T10:11:01.359Z,101146.92
2019-02-14T10:13:36.254Z,101146.19
2019-02-14T10:16:05.819Z,101145.69
2019-02-14T10:18:35.136Z,101147.62
2019-02-14T10:21:08.133Z,101145.30
2019-02-14T10:23:38.328Z,101148.67
2019-02-14T10:26:17.836Z,101152.29
2019-02-14T10:28:48.039Z,101147.33
2019-02-14T10:31:17.768Z,101140.56
2019-02-14T10:33:47.239Z,101143.02
2019-02-14T10:36:18.092Z,101137.16
2019-02-14T10:38:47.963Z,101136.34
2019-02-14T10:41:18.030Z,101128.05
2019-02-14T10:44:00.923Z,101129.63
2019-02-14T10:46:31.501Z,101129.36
2019-02-14T10:49:01.515Z,101133.59
2019-02-14T10:51:31.780Z,101134.69
2019-02-14T10:54:02.264Z,101132.54
2019-02-14T10:56:33.891Z,101134.25
2019-02-14T10:59:03.951Z,101133.52
2019-02-14T11:01:34.161Z,101135.91
2019-02-14T11:04:03.643Z,101142.53
2019-02-14T11:06:35.192Z,101135.98
2019-02-14T11:09:05.870Z,101128.52
2019-02-14T11:11:35.076Z,101125.44
2019-02-14T11:14:04.339Z,101117.73
2019-02-14T11:16:33.860Z,101115.09
2019-02-14T11:19:03.031Z,101113.71
2019-02-14T11:21:32.238Z,101114.38
2019-02-14T11:24:12.630Z,101114.72
2019-02-14T11:26:42.648Z,101121.03
2019-02-14T11:29:11.813Z,101124.41
2019-02-14T11:31:41.682Z,101121.14
2019-02-14T11:34:11.318Z,101123.71
2019-02-14T11:36:40.560Z,101118.24
2019-02-14T11:39:18.538Z,101130.78
2019-02-14T11:41:48.463Z,101121.78
2019-02-14T11:44:17.679Z,101117.46
2019-02-14T11:46:51.442Z,101112.36
2019-02-14T11:49:19.644Z,101120.92
2019-02-14T11:51:48.834Z,101113.44
2019-02-14T11:54:18.097Z,101118.64
2019-02-14T11:56:47.262Z,101109.33
2019-02-14T11:59:16.808Z,101099.45
2019-02-14T12:01:55.018Z,101094.34
2019-02-14T12:04:17.683Z,101094.18
2019-02-14T12:06:47.229Z,101083.07
2019-02-14T12:09:20.491Z,101082.84
2019-02-14T12:11:50.049Z,101078.52
2019-02-14T12:14:19.507Z,101086.17
2019-02-14T12:16:50.368Z,101082.53
2019-02-14T12:19:20.092Z,101089.12
2019-02-14T12:21:49.264Z,101082.85
2019-02-14T12:24:18.719Z,101082.55
2019-02-14T12:26:47.883Z,101067.56
2019-02-14T12:29:17.123Z,101061.25
2019-02-14T12:31:46.277Z,101057.42
2019-02-14T12:34:15.499Z,101049.57
2019-02-14T12:36:44.704Z,101046.97
2019-02-14T12:39:13.903Z,101038.61
2019-02-14T12:41:44.118Z,101034.42
2019-02-14T12:44:13.309Z,101024.72
2019-02-14T12:46:42.515Z,101016.11
2019-02-14T12:49:11.696Z,101014.96
2019-02-14T12:51:40.901Z,101016.03
2019-02-14T12:54:10.100Z,101005.23
2019-02-14T12:56:39.314Z,101007.64
2019-02-14T12:59:09.411Z,101007.58
2019-02-14T13:01:39.020Z,101013.33
2019-02-14T13:04:09.384Z,101012.09
2019-02-14T13:06:38.857Z,101002.38
2019-02-14T13:09:19.482Z,100990.75
2019-02-14T13:11:41.400Z,100994.88
2019-02-14T13:14:11.158Z,100986.36
2019-02-14T13:16:42.975Z,100983.39
2019-02-14T13:19:13.247Z,100981.67
2019-02-14T13:21:47.553Z,100975.45
2019-02-14T13:24:21.341Z,100968.09
2019-02-14T13:26:50.976Z,100966.08
2019-02-14T13:29:21.014Z,100971.02
2019-02-14T13:31:50.772Z,100973.81
2019-02-14T13:34:20.807Z,100968.05
2019-02-14T13:37:01.378Z,100973.92
2019-02-14T13:39:29.714Z,100970.16
2019-02-14T13:41:58.534Z,100971.00
2019-02-14T13:44:29.851Z,100966.83
2019-02-14T13:46:59.346Z,100968.64
2019-02-14T13:49:32.983Z,100961.48
2019-02-14T13:52:02.271Z,100954.58
2019-02-14T13:54:31.440Z,100945.67
2019-02-14T13:57:00.886Z,100951.90
2019-02-14T13:59:32.393Z,100951.52
2019-02-14T14:02:01.913Z,100949.83
2019-02-14T14:04:32.187Z,100946.80
2019-02-14T14:07:04.110Z,100936.81
2019-02-14T14:09:38.784Z,100944.23
2019-02-14T14:12:06.843Z,100945.41
2019-02-14T14:14:40.860Z,100941.99
2019-02-14T14:17:12.955Z,100943.98
2019-02-14T14:19:44.389Z,100934.70
2019-02-14T14:22:16.501Z,100930.22
2019-02-14T14:24:49.364Z,100934.33
2019-02-14T14:27:24.802Z,100928.94
2019-02-14T14:29:56.476Z,100927.76
2019-02-14T14:32:31.713Z,100936.75
2019-02-14T14:35:05.941Z,100934.63
2019-02-14T14:37:40.497Z,100929.55
2019-02-14T14:40:11.190Z,100932.92
2019-02-14T14:42:59.845Z,100934.81
2019-02-14T14:45:47.416Z,100929.67
2019-02-14T14:48:24.664Z,100929.84
2019-02-14T14:50:54.799Z,100922.35
2019-02-14T14:53:24.123Z,100925.98
2019-02-14T14:55:54.200Z,100926.42
2019-02-14T14:58:23.405Z,100936.30
2019-02-14T15:00:53.099Z,100926.11
2019-02-14T15:03:22.696Z,100920.94
2019-02-14T15:05:57.085Z,100922.81
2019-02-14T15:08:28.539Z,100927.23
2019-02-14T15:10:58.886Z,100922.95
2019-02-14T15:13:29.428Z,100920.84
2019-02-14T15:15:59.003Z,100917.66
2019-02-14T15:18:29.129Z,100917.34
2019-02-14T15:20:58.758Z,100920.03
2019-02-14T15:23:27.963Z,100914.33
2019-02-14T15:25:57.580Z,100906.48
2019-02-14T15:28:37.384Z,100906.61
2019-02-14T15:31:07.608Z,100906.92
2019-02-14T15:33:36.793Z,100904.92
2019-02-14T15:36:06.978Z,100901.72
2019-02-14T15:38:37.031Z,100900.41
2019-02-14T15:41:07.553Z,100903.27
2019-02-14T15:43:36.823Z,100899.51
2019-02-14T15:46:08.084Z,100888.40
2019-02-14T15:48:38.557Z,100883.20
2019-02-14T15:51:07.797Z,100890.77
2019-02-14T15:53:37.553Z,100887.86
2019-02-14T15:56:09.090Z,100895.80
2019-02-14T15:58:38.651Z,100898.06
2019-02-14T16:01:07.846Z,100906.92
2019-02-14T16:03:38.601Z,100900.77
2019-02-14T16:06:08.513Z,100891.25
2019-02-14T16:08:39.351Z,100902.64
2019-02-14T16:11:11.773Z,100909.06
2019-02-14T16:13:41.105Z,100908.81
2019-02-14T16:16:10.714Z,100903.33
2019-02-14T16:18:42.408Z,100915.33
2019-02-14T16:21:12.171Z,100908.48
2019-02-14T16:23:42.035Z,100915.97
2019-02-14T16:26:12.955Z,100915.02
2019-02-14T16:28:42.798Z,100918.21
2019-02-14T16:31:12.933Z,100919.27
2019-02-14T16:33:48.914Z,100913.56
2019-02-14T16:36:20.624Z,100916.44
2019-02-14T16:38:50.240Z,100923.65
2019-02-14T16:41:20.279Z,100915.80
2019-02-14T16:43:49.581Z,100917.48
2019-02-14T16:46:19.472Z,100920.63
2019-02-14T16:48:48.671Z,100929.09
2019-02-14T16:51:17.839Z,100925.28
2019-02-14T16:53:50.150Z,100922.72
2019-02-14T16:56:19.337Z,100923.91
2019-02-14T16:58:48.569Z,100919.97
2019-02-14T17:01:17.993Z,100921.44
2019-02-14T17:03:47.296Z,100925.37
2019-02-14T17:06:19.411Z,100927.05
2019-02-14T17:08:49.267Z,100923.95
2019-02-14T17:11:23.594Z,100925.98
2019-02-14T17:13:53.851Z,100934.63
2019-02-14T17:16:23.425Z,100939.69
2019-02-14T17:18:52.753Z,100940.02
2019-02-14T17:21:22.504Z,100938.00
2019-02-14T17:23:51.687Z,100933.67
2019-02-14T17:26:21.905Z,100936.44
2019-02-14T17:28:51.236Z,100942.86
2019-02-14T17:31:20.482Z,100942.28
2019-02-14T17:33:51.490Z,100944.97
2019-02-14T17:36:20.759Z,100946.94
2019-02-14T17:38:52.561Z,100956.89
2019-02-14T17:41:22.187Z,100954.55
2019-02-14T17:43:51.490Z,100960.96
2019-02-14T17:46:20.837Z,100956.85
2019-02-14T17:48:50.043Z,100948.97
2019-02-14T17:51:19.827Z,100952.16
2019-02-14T17:53:49.010Z,100946.11
2019-02-14T17:56:21.093Z,100951.20
2019-02-14T17:59:01.803Z,100953.41
2019-02-14T18:01:36.404Z,100942.61
2019-02-14T18:04:06.355Z,100940.22
2019-02-14T18:06:35.707Z,100937.71
2019-02-14T18:09:06.814Z,100937.71
2019-02-14T18:11:36.828Z,100941.08
2019-02-14T18:14:06.910Z,100936.88
2019-02-14T18:16:36.724Z,100944.02
2019-02-14T18:19:09.251Z,100948.30
2019-02-14T18:21:42.982Z,100957.03
2019-02-14T18:24:12.230Z,100951.35
2019-02-14T18:26:42.876Z,100949.00
2019-02-14T18:29:12.678Z,100962.59
2019-02-14T18:31:43.747Z,100963.43
2019-02-14T18:34:13.695Z,100957.38
2019-02-14T18:36:42.979Z,100959.98
2019-02-14T18:39:12.507Z,100953.67
2019-02-14T18:41:42.260Z,100953.84
2019-02-14T18:44:15.176Z,100955.44
2019-02-14T18:46:55.323Z,100954.80
2019-02-14T18:49:26.366Z,100956.53
2019-02-14T18:51:57.634Z,100948.50
2019-02-14T18:54:28.187Z,100958.23
2019-02-14T18:56:57.424Z,100955.19
2019-02-14T18:59:26.877Z,100947.55
2019-02-14T19:01:56.076Z,100956.84
2019-02-14T19:04:25.833Z,100954.74
2019-02-14T19:06:57.058Z,100953.09
2019-02-14T19:09:32.051Z,100957.16
2019-02-14T19:12:10.134Z,100962.89
2019-02-14T19:14:52.618Z,100962.97
2019-02-14T19:17:23.477Z,100961.15
2019-02-14T19:19:54.253Z,100959.08
2019-02-14T19:22:24.048Z,100949.80
2019-02-14T19:24:55.908Z,100946.91
2019-02-14T19:27:28.738Z,100944.89
2019-02-14T19:29:58.705Z,100940.34
2019-02-14T19:32:30.425Z,100936.84
2019-02-14T19:35:00.488Z,100935.45
2019-02-14T19:37:34.067Z,100931.80
2019-02-14T19:40:05.875Z,100934.39
2019-02-14T19:42:39.024Z,100941.66
2019-02-14T19:45:13.624Z,100944.09
2019-02-14T19:47:49.557Z,100932.26
2019-02-14T19:50:21.195Z,100932.41
2019-02-14T19:52:55.445Z,100937.53
2019-02-14T19:55:25.588Z,100940.23
2019-02-14T19:57:59.214Z,100936.83
2019-02-14T20:00:32.321Z,100929.00
2019-02-14T20:03:02.428Z,100927.07
2019-02-14T20:05:36.384Z,100923.22
2019-02-14T20:08:05.988Z,100928.58
2019-02-14T20:10:38.377Z,100925.52
2019-02-14T20:13:09.989Z,100928.28
2019-02-14T20:15:43.036Z,100930.95
2019-02-14T20:18:12.840Z,100928.83
2019-02-14T20:20:45.016Z,100932.31
2019-02-14T20:23:15.065Z,100937.23
2019-02-14T20:25:44.587Z,100946.72
2019-02-14T20:28:13.741Z,100945.78
2019-02-14T20:30:45.777Z,100941.50
2019-02-14T20:33:16.892Z,100940.81
2019-02-14T20:35:49.051Z,100945.28
2019-02-14T20:38:20.974Z,100946.09
2019-02-14T20:40:53.055Z,100941.19
2019-02-14T20:43:22.513Z,100948.98
2019-02-14T20:45:52.937Z,100942.86
2019-02-14T20:48:22.114Z,100947.46
2019-02-14T20:50:52.045Z,100950.17
2019-02-14T20:53:21.262Z,100946.80
2019-02-14T20:55:51.790Z,100941.73
2019-02-14T20:58:21.333Z,100942.17
2019-02-14T21:00:50.866Z,100939.53
2019-02-14T21:03:20.289Z,100937.45
2019-02-14T21:05:49.488Z,100939.73
2019-02-14T21:08:19.014Z,100941.02
2019-02-14T21:10:48.686Z,100939.75
2019-02-14T21:13:21.154Z,100939.88
2019-02-14T21:15:52.197Z,100936.39
2019-02-14T21:18:21.675Z,100949.97
2019-02-14T21:20:55.283Z,100939.55
2019-02-14T21:23:24.497Z,100934.70
2019-02-14T21:25:53.979Z,100944.38
2019-02-14T21:28:25.276Z,100943.53
2019-02-14T21:30:54.788Z,100950.95
2019-02-14T21:33:25.535Z,100957.94
2019-02-14T21:36:05.025Z,100950.51
2019-02-14T21:38:37.490Z,100950.13
2019-02-14T21:41:27.326Z,100957.98
2019-02-14T21:43:56.579Z,100955.41
2019-02-14T21:46:26.060Z,100960.20
2019-02-14T21:48:56.163Z,100957.21
2019-02-14T21:51:26.813Z,100954.97
2019-02-14T21:54:00.968Z,100955.45
2019-02-14T21:56:34.655Z,100957.62
2019-02-14T21:59:08.393Z,100963.72
2019-02-14T22:01:38.832Z,100963.30
2019-02-14T22:04:08.701Z,100970.73
2019-02-14T22:06:38.505Z,100971.63
2019-02-14T22:09:09.205Z,100972.89
2019-02-14T22:11:39.242Z,100970.28
2019-02-14T22:14:08.744Z,100975.91
2019-02-14T22:16:38.502Z,100967.62
2019-02-14T22:19:12.538Z,100966.79
2019-02-14T22:21:42.709Z,100961.54
2019-02-14T22:24:12.961Z,100961.09
2019-02-14T22:26:42.170Z,100962.02
2019-02-14T22:29:11.603Z,100963.77
2019-02-14T22:31:41.588Z,100963.84
2019-02-14T22:34:13.355Z,100967.84
2019-02-14T22:36:50.261Z,100959.58
2019-02-14T22:39:19.962Z,100963.05
2019-02-14T22:41:52.608Z,100959.99
2019-02-14T22:44:24.923Z,100966.97
2019-02-14T22:46:54.949Z,100958.28
2019-02-14T22:49:24.403Z,100960.03
2019-02-14T22:51:55.126Z,100959.16
2019-02-14T22:54:24.585Z,100957.42
2019-02-14T22:56:55.317Z,100963.55
2019-02-14T22:59:25.291Z,100956.11
2019-02-14T23:01:56.479Z,100953.08
2019-02-14T23:04:29.709Z,100946.13
2019-02-14T23:07:00.286Z,100949.17
2019-02-14T23:09:29.438Z,100954.80
2019-02-14T23:11:58.675Z,100951.76
2019-02-14T23:14:31.246Z,100955.70
2019-02-14T23:17:00.454Z,100960.45
2019-02-14T23:19:34.242Z,100958.70
2019-02-14T23:22:05.808Z,100959.16
2019-02-14T23:24:39.732Z,100961.34
2019-02-14T23:27:09.486Z,100958.29
2019-02-14T23:29:38.872Z,100958.31
2019-02-14T23:32:08.045Z,100960.91
2019-02-14T23:34:39.539Z,100964.85
2019-02-14T23:37:08.977Z,100962.23
2019-02-14T23:39:38.818Z,100958.77
2019-02-14T23:42:08.801Z,100957.90
2019-02-14T23:44:39.062Z,100958.79
2019-02-14T23:47:08.838Z,100959.22
2019-02-14T23:49:38.381Z,100959.63
2019-02-14T23:52:11.135Z,100953.55
2019-02-14T23:54:41.576Z,100959.65
2019-02-14T23:57:15.388Z,100957.05
2019-02-14T23:59:45.972Z,100955.30
